Time;durP1;ratioP1;P1;durP2;ratioP2;P2;SDS_P1;SDS_P2;PMS_P1;PMS_P2;Temp;Humidity;BMP_temperature;BMP_pressure;BME280_temperature;BME280_humidity;BME280_pressure;Samples;Min_cycle;Max_cycle;Signal;HPM_P1;HPM_P2
2023/06/05 00:00:21;;;;;;;20.23;11.77;;;;;;;;;;5070299;28;20044;-59
2023/06/05 00:02:47;;;;;;;17.03;9.67;;;;;;;;;;5069934;28;20490;-59
2023/06/05 00:05:15;;;;;;;18.90;10.63;;;;;;;;;;5070412;28;20101;-59
2023/06/05 00:07:41;;;;;;;22.67;11.53;;;;;;;;;;5070403;28;20071;-59
2023/06/05 00:10:08;;;;;;;20.20;11.20;;;;;;;;;;5069986;28;20045;-59
2023/06/05 00:12:34;;;;;;;17.70;11.37;;;;;;;;;;5069863;28;20040;-60
2023/06/05 00:15:01;;;;;;;19.53;10.33;;;;;;;;;;5069523;28;20084;-59
2023/06/05 00:17:27;;;;;;;20.00;11.20;;;;;;;;;;5070166;28;20105;-59
2023/06/05 00:19:53;;;;;;;20.00;11.00;;;;;;;;;;5069978;28;20080;-59
2023/06/05 00:22:20;;;;;;;21.27;11.83;;;;;;;;;;5070120;28;20076;-59
2023/06/05 00:24:46;;;;;;;28.17;12.07;;;;;;;;;;5069533;28;20044;-59
2023/06/05 00:27:12;;;;;;;26.00;12.13;;;;;;;;;;5069854;28;20036;-59
2023/06/05 00:29:38;;;;;;;20.27;11.20;;;;;;;;;;5069867;28;20040;-59
2023/06/05 00:32:04;;;;;;;22.53;12.00;;;;;;;;;;5067255;28;20070;-59
2023/06/05 00:34:30;;;;;;;19.73;11.43;;;;;;;;;;5069097;28;20052;-59
2023/06/05 00:36:58;;;;;;;23.00;11.77;;;;;;;;;;5069633;28;20048;-59
2023/06/05 00:39:24;;;;;;;26.93;11.77;;;;;;;;;;5069678;28;20080;-59
2023/06/05 00:41:50;;;;;;;22.20;11.70;;;;;;;;;;5069122;28;20087;-60
2023/06/05 00:44:18;;;;;;;23.97;12.70;;;;;;;;;;5069447;28;20076;-59
2023/06/05 00:46:45;;;;;;;26.40;13.20;;;;;;;;;;5069273;28;20404;-60
2023/06/05 00:49:12;;;;;;;34.47;14.73;;;;;;;;;;5069393;28;20086;-59
2023/06/05 00:51:38;;;;;;;25.80;12.90;;;;;;;;;;5069249;28;20581;-59
2023/06/05 00:54:04;;;;;;;28.30;13.37;;;;;;;;;;5069506;28;20048;-59
2023/06/05 00:56:32;;;;;;;27.57;13.20;;;;;;;;;;5069482;28;20048;-59
2023/06/05 00:58:58;;;;;;;24.50;13.40;;;;;;;;;;5069016;28;20131;-59
2023/06/05 01:01:28;;;;;;;21.27;12.33;;;;;;;;;;5068704;28;20123;-59
2023/06/05 01:03:57;;;;;;;24.17;13.20;;;;;;;;;;5069281;28;20088;-59
2023/06/05 01:06:24;;;;;;;25.30;13.53;;;;;;;;;;5069639;28;20040;-59
2023/06/05 01:08:50;;;;;;;31.03;12.50;;;;;;;;;;5069256;28;20045;-59
2023/06/05 01:11:16;;;;;;;27.97;13.30;;;;;;;;;;5069463;28;20379;-59
2023/06/05 01:13:46;;;;;;;24.43;13.47;;;;;;;;;;5068696;28;20052;-59
2023/06/05 01:16:12;;;;;;;29.77;13.57;;;;;;;;;;5069173;28;20456;-59
2023/06/05 01:18:40;;;;;;;23.67;13.67;;;;;;;;;;5069105;28;20044;-59
2023/06/05 01:21:13;;;;;;;25.80;14.00;;;;;;;;;;5068923;28;20052;-59
2023/06/05 01:23:43;;;;;;;29.52;13.85;;;;;;;;;;5068852;28;20052;-59
2023/06/05 01:26:10;;;;;;;26.27;13.17;;;;;;;;;;5068963;28;20052;-59
2023/06/05 01:28:37;;;;;;;32.30;12.33;;;;;;;;;;5067093;28;20047;-59
2023/06/05 01:31:15;;;;;;;27.10;12.40;;;;;;;;;;5068746;28;20103;-59
2023/06/05 01:33:49;;;;;;;34.40;13.90;;;;;;;;;;5068652;28;20080;-59
2023/06/05 01:36:15;;;;;;;27.77;12.93;;;;;;;;;;5068195;28;21116;-60
2023/06/05 01:38:42;;;;;;;30.03;13.50;;;;;;;;;;5067805;28;20040;-59
2023/06/05 01:41:10;;;;;;;30.27;14.47;;;;;;;;;;5068602;28;20036;-59
2023/06/05 01:43:36;;;;;;;29.17;14.13;;;;;;;;;;5068572;28;20177;-59
2023/06/05 01:46:02;;;;;;;29.80;14.63;;;;;;;;;;5068324;28;20048;-60
2023/06/05 01:48:30;;;;;;;27.33;13.57;;;;;;;;;;5067818;28;20767;-59
2023/06/05 01:50:59;;;;;;;33.10;13.97;;;;;;;;;;5068685;28;20071;-59
2023/06/05 01:53:25;;;;;;;25.83;12.00;;;;;;;;;;5068946;28;20045;-59
2023/06/05 01:55:57;;;;;;;34.17;14.77;;;;;;;;;;5067972;28;20048;-59
2023/06/05 01:58:23;;;;;;;27.37;13.43;;;;;;;;;;5063567;28;20064;-60
2023/06/05 02:00:49;;;;;;;32.33;14.30;;;;;;;;;;5048375;28;20128;-59
2023/06/05 02:03:15;;;;;;;38.97;14.90;;;;;;;;;;5048620;28;20479;-59
2023/06/05 02:05:42;;;;;;;26.93;14.00;;;;;;;;;;5048440;28;20045;-59
2023/06/05 02:08:09;;;;;;;33.60;15.17;;;;;;;;;;5048515;28;20052;-60
2023/06/05 02:10:35;;;;;;;36.90;16.57;;;;;;;;;;5048072;28;20674;-59
2023/06/05 02:13:01;;;;;;;29.67;15.13;;;;;;;;;;5048373;28;20491;-59
2023/06/05 02:15:28;;;;;;;26.97;13.97;;;;;;;;;;5048288;28;20051;-59
2023/06/05 02:17:54;;;;;;;35.10;16.43;;;;;;;;;;5048588;28;20137;-59
2023/06/05 02:20:24;;;;;;;37.33;16.53;;;;;;;;;;5050934;28;21814;-60
2023/06/05 02:22:51;;;;;;;32.33;15.07;;;;;;;;;;5068088;28;20102;-59
2023/06/05 02:25:18;;;;;;;33.73;15.00;;;;;;;;;;5067011;28;20045;-59
2023/06/05 02:27:44;;;;;;;33.40;14.43;;;;;;;;;;5068502;28;20828;-59
2023/06/05 02:30:11;;;;;;;31.10;15.17;;;;;;;;;;5067809;28;20045;-59
2023/06/05 02:32:41;;;;;;;35.83;15.77;;;;;;;;;;5068148;28;20048;-60
2023/06/05 02:35:11;;;;;;;40.23;16.20;;;;;;;;;;5067013;28;20114;-60
2023/06/05 02:37:43;;;;;;;29.07;14.30;;;;;;;;;;5068151;28;20051;-59
2023/06/05 02:40:09;;;;;;;32.47;14.47;;;;;;;;;;5067895;28;20052;-59
2023/06/05 02:42:35;;;;;;;43.70;17.43;;;;;;;;;;5068064;28;20044;-60
2023/06/05 02:45:01;;;;;;;46.27;17.03;;;;;;;;;;5068004;28;20040;-60
2023/06/05 02:47:27;;;;;;;44.20;17.53;;;;;;;;;;5067952;28;20119;-60
2023/06/05 02:49:53;;;;;;;31.30;15.80;;;;;;;;;;5071878;28;20457;-59
2023/06/05 02:52:20;;;;;;;37.30;16.47;;;;;;;;;;5071418;28;20495;-59
2023/06/05 02:54:46;;;;;;;45.17;18.60;;;;;;;;;;5071650;28;20052;-59
2023/06/05 02:57:13;;;;;;;38.40;17.03;;;;;;;;;;5071327;28;20487;-60
2023/06/05 02:59:40;;;;;;;53.83;19.10;;;;;;;;;;5070834;28;20063;-59
2023/06/05 03:02:06;;;;;;;42.33;18.33;;;;;;;;;;5071425;28;20040;-59
2023/06/05 03:04:32;;;;;;;45.43;16.80;;;;;;;;;;5071908;28;20047;-59
2023/06/05 03:06:59;;;;;;;38.57;17.63;;;;;;;;;;5071425;28;20049;-59
2023/06/05 03:09:25;;;;;;;38.37;17.27;;;;;;;;;;5071890;28;20054;-59
2023/06/05 03:11:52;;;;;;;30.17;15.23;;;;;;;;;;5071140;28;20506;-59
2023/06/05 03:14:18;;;;;;;36.70;17.37;;;;;;;;;;5071508;28;20047;-59
2023/06/05 03:16:45;;;;;;;34.77;15.07;;;;;;;;;;5071359;28;20094;-59
2023/06/05 03:19:11;;;;;;;30.73;15.23;;;;;;;;;;5070561;28;20572;-59
2023/06/05 03:21:39;;;;;;;38.27;16.67;;;;;;;;;;5071307;28;20041;-59
2023/06/05 03:24:10;;;;;;;34.83;15.70;;;;;;;;;;5070925;28;20048;-59
2023/06/05 03:26:36;;;;;;;43.13;16.40;;;;;;;;;;5071152;28;20055;-59
2023/06/05 03:29:02;;;;;;;41.80;17.53;;;;;;;;;;5069106;28;20046;-59
2023/06/05 03:31:29;;;;;;;37.30;17.50;;;;;;;;;;5070474;28;20040;-60
2023/06/05 03:33:55;;;;;;;36.07;15.50;;;;;;;;;;5070656;28;20051;-59
2023/06/05 03:36:21;;;;;;;38.00;16.43;;;;;;;;;;5071028;28;20101;-59
2023/06/05 03:38:47;;;;;;;32.03;15.60;;;;;;;;;;5070771;28;20057;-59
2023/06/05 03:41:13;;;;;;;48.27;18.87;;;;;;;;;;5070695;28;20128;-59
2023/06/05 03:43:39;;;;;;;30.40;15.67;;;;;;;;;;5070126;28;20055;-59
2023/06/05 03:46:05;;;;;;;35.10;15.97;;;;;;;;;;5069488;28;20049;-59
2023/06/05 03:48:31;;;;;;;35.97;16.97;;;;;;;;;;5070853;28;20505;-59
2023/06/05 03:50:57;;;;;;;27.83;14.10;;;;;;;;;;5070229;28;20080;-59
2023/06/05 03:53:24;;;;;;;45.30;19.10;;;;;;;;;;5070370;28;20053;-59
2023/06/05 03:55:52;;;;;;;46.40;19.00;;;;;;;;;;5069668;28;20134;-60
2023/06/05 03:58:19;;;;;;;38.47;18.83;;;;;;;;;;5070592;28;20109;-59
2023/06/05 04:00:48;;;;;;;38.60;18.40;;;;;;;;;;5069882;28;20041;-59
2023/06/05 04:03:15;;;;;;;39.97;17.73;;;;;;;;;;5070275;28;20486;-59
2023/06/05 04:05:41;;;;;;;57.00;20.17;;;;;;;;;;5070149;28;20048;-59
2023/06/05 04:08:08;;;;;;;29.00;13.77;;;;;;;;;;5070234;28;20093;-60
2023/06/05 04:10:34;;;;;;;35.60;18.17;;;;;;;;;;5069782;28;20048;-60
2023/06/05 04:13:00;;;;;;;40.90;19.30;;;;;;;;;;5069180;28;20049;-59
2023/06/05 04:15:27;;;;;;;34.30;16.77;;;;;;;;;;5069072;28;20053;-59
2023/06/05 04:17:53;;;;;;;43.27;17.43;;;;;;;;;;5070049;28;20056;-60
2023/06/05 04:20:19;;;;;;;34.23;15.27;;;;;;;;;;5069749;28;20456;-59
2023/06/05 04:22:45;;;;;;;46.50;18.90;;;;;;;;;;5069257;28;20052;-59
2023/06/05 04:25:14;;;;;;;46.60;19.47;;;;;;;;;;5069904;28;20071;-59
2023/06/05 04:27:41;;;;;;;35.57;15.40;;;;;;;;;;5069222;28;20055;-60
2023/06/05 04:30:08;;;;;;;39.10;17.93;;;;;;;;;;5069627;28;20048;-59
2023/06/05 04:32:37;;;;;;;44.43;18.80;;;;;;;;;;5069522;28;20098;-60
2023/06/05 04:35:08;;;;;;;50.33;20.43;;;;;;;;;;5069620;28;20048;-60
2023/06/05 04:37:35;;;;;;;41.03;17.63;;;;;;;;;;5069667;28;20511;-60
2023/06/05 04:40:09;;;;;;;28.13;15.00;;;;;;;;;;5069567;28;20163;-60
2023/06/05 04:42:36;;;;;;;30.70;16.00;;;;;;;;;;5069195;28;20044;-60
2023/06/05 04:45:09;;;;;;;33.23;15.83;;;;;;;;;;5068026;28;20102;-60
2023/06/05 04:47:35;;;;;;;38.22;16.85;;;;;;;;;;5069363;28;20037;-60
2023/06/05 04:50:03;;;;;;;40.23;20.03;;;;;;;;;;5069197;28;20088;-60
2023/06/05 04:52:30;;;;;;;45.40;18.90;;;;;;;;;;5069100;28;20144;-59
2023/06/05 04:54:57;;;;;;;35.70;18.00;;;;;;;;;;5069059;28;20462;-60
2023/06/05 04:57:25;;;;;;;35.70;18.47;;;;;;;;;;5068743;28;20051;-60
2023/06/05 04:59:52;;;;;;;38.50;19.43;;;;;;;;;;5069282;28;20044;-60
2023/06/05 05:02:18;;;;;;;38.07;17.97;;;;;;;;;;5069339;28;20073;-60
2023/06/05 05:04:44;;;;;;;37.07;17.60;;;;;;;;;;5069389;28;20452;-60
2023/06/05 05:07:14;;;;;;;41.10;17.03;;;;;;;;;;5068809;28;20052;-60
2023/06/05 05:09:41;;;;;;;34.57;17.70;;;;;;;;;;5069121;28;20056;-60
2023/06/05 05:12:07;;;;;;;40.87;18.37;;;;;;;;;;5067854;28;20450;-60
2023/06/05 05:14:33;;;;;;;39.30;18.27;;;;;;;;;;5067958;28;20044;-60
2023/06/05 05:17:01;;;;;;;35.07;18.17;;;;;;;;;;5068882;28;20036;-61
2023/06/05 05:19:27;;;;;;;34.53;17.83;;;;;;;;;;5068501;28;20528;-60
2023/06/05 05:21:53;;;;;;;27.87;15.70;;;;;;;;;;5068667;28;20102;-60
2023/06/05 05:24:19;;;;;;;31.30;16.47;;;;;;;;;;5068570;28;20090;-60
2023/06/05 05:26:46;;;;;;;44.93;18.50;;;;;;;;;;5068229;28;20044;-61
2023/06/05 05:29:12;;;;;;;30.17;15.57;;;;;;;;;;5067060;28;20131;-60
2023/06/05 05:31:38;;;;;;;30.90;16.33;;;;;;;;;;5068205;28;20492;-60
2023/06/05 05:34:05;;;;;;;37.80;18.10;;;;;;;;;;5049437;28;20499;-60
2023/06/05 05:36:33;;;;;;;27.47;15.87;;;;;;;;;;5048558;28;20044;-60
2023/06/05 05:38:59;;;;;;;24.57;14.77;;;;;;;;;;5048266;28;20135;-60
2023/06/05 05:41:28;;;;;;;27.60;15.87;;;;;;;;;;5054676;28;20077;-60
2023/06/05 05:43:54;;;;;;;20.43;12.90;;;;;;;;;;5068066;28;20044;-60
2023/06/05 05:46:20;;;;;;;21.40;12.63;;;;;;;;;;5068394;28;20049;-60
2023/06/05 05:48:46;;;;;;;19.30;13.17;;;;;;;;;;5068188;28;20049;-60
2023/06/05 05:51:12;;;;;;;27.00;13.87;;;;;;;;;;5067773;28;20606;-60
2023/06/05 05:53:38;;;;;;;22.97;12.50;;;;;;;;;;5067442;28;20041;-60
2023/06/05 05:56:04;;;;;;;25.43;13.50;;;;;;;;;;5067859;28;20056;-60
2023/06/05 05:58:31;;;;;;;28.13;14.27;;;;;;;;;;5068146;28;20132;-60
2023/06/05 06:00:59;;;;;;;26.93;12.83;;;;;;;;;;5067782;28;20048;-60
2023/06/05 06:03:26;;;;;;;21.13;11.23;;;;;;;;;;5050365;28;20113;-60
2023/06/05 06:05:53;;;;;;;21.27;10.90;;;;;;;;;;5068007;28;20136;-60
2023/06/05 06:08:20;;;;;;;23.17;11.70;;;;;;;;;;5068252;28;20049;-61
2023/06/05 06:10:46;;;;;;;21.67;10.93;;;;;;;;;;5068203;28;20435;-60
2023/06/05 06:13:13;;;;;;;16.13;11.27;;;;;;;;;;5068086;28;20486;-60
2023/06/05 06:15:39;;;;;;;18.73;10.57;;;;;;;;;;5067676;28;20063;-60
2023/06/05 06:18:08;;;;;;;16.20;10.93;;;;;;;;;;5067931;28;20069;-60
2023/06/05 06:20:34;;;;;;;17.43;10.60;;;;;;;;;;5067210;28;20045;-59
2023/06/05 06:23:02;;;;;;;12.30;8.40;;;;;;;;;;5047825;28;20052;-60
2023/06/05 06:25:31;;;;;;;14.13;10.27;;;;;;;;;;5066785;28;20048;-60
2023/06/05 06:27:58;;;;;;;14.40;8.80;;;;;;;;;;5070628;28;20090;-60
2023/06/05 06:30:25;;;;;;;13.43;8.97;;;;;;;;;;5066416;28;20075;-60
2023/06/05 06:32:51;;;;;;;11.60;8.73;;;;;;;;;;5058525;28;20071;-61
2023/06/05 06:35:17;;;;;;;11.57;8.40;;;;;;;;;;5071235;28;20043;-61
2023/06/05 06:37:44;;;;;;;12.50;9.03;;;;;;;;;;5071676;28;20064;-59
2023/06/05 06:40:11;;;;;;;11.40;7.83;;;;;;;;;;5071509;28;20044;-59
2023/06/05 06:42:39;;;;;;;14.37;9.40;;;;;;;;;;5067320;28;20037;-60
2023/06/05 06:45:06;;;;;;;10.87;8.33;;;;;;;;;;5059723;28;20094;-60
2023/06/05 06:47:32;;;;;;;15.70;9.13;;;;;;;;;;5055779;28;20457;-60
2023/06/05 06:49:58;;;;;;;23.87;10.10;;;;;;;;;;5057138;28;20048;-61
2023/06/05 06:52:24;;;;;;;11.80;8.70;;;;;;;;;;5070587;28;20513;-60
2023/06/05 06:54:50;;;;;;;11.50;8.33;;;;;;;;;;5071140;28;20106;-60
2023/06/05 06:57:16;;;;;;;12.30;8.40;;;;;;;;;;5069767;28;20040;-60
2023/06/05 06:59:42;;;;;;;12.33;9.30;;;;;;;;;;5059957;28;20527;-60
2023/06/05 07:02:19;;;;;;;11.00;8.50;;;;;;;;;;5056429;28;20139;-60
2023/06/05 07:04:46;;;;;;;13.30;9.00;;;;;;;;;;5070626;28;20091;-60
2023/06/05 07:07:16;;;;;;;11.63;8.90;;;;;;;;;;5071172;28;20068;-60
2023/06/05 07:09:43;;;;;;;12.83;8.17;;;;;;;;;;5069000;28;20045;-60
2023/06/05 07:12:10;;;;;;;8.80;7.33;;;;;;;;;;5060961;28;20041;-61
2023/06/05 07:14:36;;;;;;;10.77;7.97;;;;;;;;;;5054783;28;20040;-60
2023/06/05 07:17:02;;;;;;;13.67;7.97;;;;;;;;;;5071119;28;20127;-60
2023/06/05 07:19:29;;;;;;;10.20;8.47;;;;;;;;;;5069371;28;20072;-59
2023/06/05 07:21:57;;;;;;;14.53;8.33;;;;;;;;;;5070625;28;20123;-59
2023/06/05 07:24:24;;;;;;;10.67;7.83;;;;;;;;;;5069044;28;20048;-59
2023/06/05 07:26:55;;;;;;;20.10;8.00;;;;;;;;;;5071003;28;20114;-59
2023/06/05 07:29:22;;;;;;;11.17;7.40;;;;;;;;;;5070634;28;20529;-60
2023/06/05 07:31:48;;;;;;;9.70;7.13;;;;;;;;;;5069559;28;20449;-60
2023/06/05 07:34:15;;;;;;;8.83;6.13;;;;;;;;;;5068179;28;20052;-60
2023/06/05 07:36:41;;;;;;;7.47;6.03;;;;;;;;;;5070846;28;20048;-60
2023/06/05 07:39:08;;;;;;;8.60;5.23;;;;;;;;;;5070299;28;20041;-59
2023/06/05 07:41:34;;;;;;;7.60;6.40;;;;;;;;;;5070879;28;20098;-59
2023/06/05 07:44:01;;;;;;;8.50;5.20;;;;;;;;;;5070296;28;20048;-59
2023/06/05 07:46:27;;;;;;;9.40;5.30;;;;;;;;;;5070258;28;20075;-59
2023/06/05 07:48:53;;;;;;;6.93;5.07;;;;;;;;;;5070496;28;20051;-60
2023/06/05 07:51:20;;;;;;;6.87;4.70;;;;;;;;;;5051241;28;20153;-60
2023/06/05 07:53:46;;;;;;;7.60;5.03;;;;;;;;;;5068804;28;20076;-60
2023/06/05 07:56:13;;;;;;;6.63;4.50;;;;;;;;;;5050390;28;20391;-60
2023/06/05 07:58:41;;;;;;;6.60;4.27;;;;;;;;;;5052747;28;20110;-60
2023/06/05 08:01:07;;;;;;;5.47;4.07;;;;;;;;;;5069196;28;20509;-60
2023/06/05 08:03:33;;;;;;;7.10;4.00;;;;;;;;;;5070329;28;20131;-60
2023/06/05 08:06:00;;;;;;;5.67;4.00;;;;;;;;;;5067831;28;20098;-60
2023/06/05 08:08:26;;;;;;;5.43;3.53;;;;;;;;;;5069077;28;20044;-60
2023/06/05 08:10:52;;;;;;;7.43;4.23;;;;;;;;;;5069795;28;20040;-60
2023/06/05 08:13:18;;;;;;;5.60;3.33;;;;;;;;;;5070162;28;20040;-60
2023/06/05 08:15:45;;;;;;;6.13;3.67;;;;;;;;;;5069963;28;20816;-60
2023/06/05 08:18:11;;;;;;;5.73;3.83;;;;;;;;;;5069495;28;20048;-60
2023/06/05 08:20:37;;;;;;;4.07;3.10;;;;;;;;;;5070208;28;20078;-60
2023/06/05 08:23:05;;;;;;;5.40;3.37;;;;;;;;;;5069027;28;20048;-60
2023/06/05 08:25:31;;;;;;;4.77;3.30;;;;;;;;;;5068080;28;20048;-60
2023/06/05 08:27:57;;;;;;;8.53;3.80;;;;;;;;;;5070070;28;20044;-60
2023/06/05 08:30:23;;;;;;;7.03;3.43;;;;;;;;;;5069193;28;20399;-60
2023/06/05 08:32:49;;;;;;;6.47;3.57;;;;;;;;;;5069656;28;20064;-60
2023/06/05 08:35:15;;;;;;;5.77;3.20;;;;;;;;;;5069518;28;20056;-60
2023/06/05 08:37:41;;;;;;;6.27;4.00;;;;;;;;;;5069777;28;20041;-60
2023/06/05 08:40:10;;;;;;;6.03;3.30;;;;;;;;;;5068943;28;20045;-60
2023/06/05 08:42:40;;;;;;;5.30;3.90;;;;;;;;;;5069643;28;20048;-60
2023/06/05 08:45:07;;;;;;;6.20;3.27;;;;;;;;;;5069368;28;20060;-60
2023/06/05 08:47:36;;;;;;;5.70;3.40;;;;;;;;;;5069240;28;20051;-60
2023/06/05 08:50:04;;;;;;;5.83;3.00;;;;;;;;;;5068857;28;20071;-60
2023/06/05 08:52:34;;;;;;;5.60;3.00;;;;;;;;;;5068706;28;20127;-59
2023/06/05 08:55:00;;;;;;;4.13;2.67;;;;;;;;;;5060561;28;20379;-60
2023/06/05 08:57:28;;;;;;;4.60;3.30;;;;;;;;;;5049969;28;20398;-60
2023/06/05 08:59:54;;;;;;;3.80;2.97;;;;;;;;;;5049300;28;20433;-60
2023/06/05 09:02:21;;;;;;;8.57;3.10;;;;;;;;;;5048903;28;20091;-60
2023/06/05 09:04:47;;;;;;;5.60;3.40;;;;;;;;;;5065411;28;20044;-60
2023/06/05 09:07:13;;;;;;;4.20;3.00;;;;;;;;;;5069395;28;20117;-60
2023/06/05 09:09:39;;;;;;;4.83;3.27;;;;;;;;;;5068941;28;21024;-60
2023/06/05 09:12:06;;;;;;;7.07;3.13;;;;;;;;;;5069021;28;20402;-60
2023/06/05 09:14:35;;;;;;;5.00;3.53;;;;;;;;;;5067717;28;20055;-60
2023/06/05 09:17:02;;;;;;;5.50;3.00;;;;;;;;;;5068793;28;20667;-60
2023/06/05 09:19:38;;;;;;;4.37;2.87;;;;;;;;;;5069048;28;20048;-60
2023/06/05 09:22:05;;;;;;;4.90;3.40;;;;;;;;;;5068182;28;20534;-60
2023/06/05 09:24:31;;;;;;;4.97;3.10;;;;;;;;;;5068701;28;20101;-60
2023/06/05 09:27:01;;;;;;;5.13;3.53;;;;;;;;;;5068982;28;20084;-60
2023/06/05 09:29:38;;;;;;;4.20;2.50;;;;;;;;;;5068811;28;20499;-60
2023/06/05 09:32:08;;;;;;;5.93;3.40;;;;;;;;;;5068356;28;20553;-60
2023/06/05 09:34:35;;;;;;;5.03;3.30;;;;;;;;;;5068044;28;20071;-61
2023/06/05 09:37:03;;;;;;;5.87;3.10;;;;;;;;;;5067495;28;20072;-60
2023/06/05 09:39:29;;;;;;;6.87;3.07;;;;;;;;;;5068213;28;20046;-60
2023/06/05 09:41:56;;;;;;;4.88;2.83;;;;;;;;;;5068213;28;20056;-60
2023/06/05 09:44:23;;;;;;;4.88;3.08;;;;;;;;;;5068356;28;20051;-60
2023/06/05 09:47:05;;;;;;;4.57;3.60;;;;;;;;;;5067986;28;20048;-60
2023/06/05 09:49:40;;;;;;;3.75;3.20;;;;;;;;;;5067970;28;20051;-60
2023/06/05 09:52:10;;;;;;;5.50;3.22;;;;;;;;;;5068369;28;20044;-60
2023/06/05 09:54:44;;;;;;;4.15;3.08;;;;;;;;;;5068077;28;20098;-60
2023/06/05 09:57:11;;;;;;;5.68;3.20;;;;;;;;;;5067825;28;20052;-60
2023/06/05 09:59:42;;;;;;;6.50;3.53;;;;;;;;;;5068349;28;20411;-60
2023/06/05 10:02:09;;;;;;;5.65;3.08;;;;;;;;;;5065666;28;20048;-61
2023/06/05 10:04:42;;;;;;;5.97;3.10;;;;;;;;;;5066942;28;20044;-60
2023/06/05 10:07:09;;;;;;;5.25;3.25;;;;;;;;;;5059025;28;20045;-60
2023/06/05 10:09:36;;;;;;;6.20;2.90;;;;;;;;;;5066483;28;20101;-60
2023/06/05 10:12:03;;;;;;;4.93;3.17;;;;;;;;;;5066716;28;20055;-60
2023/06/05 10:14:30;;;;;;;5.70;3.00;;;;;;;;;;5065977;28;20048;-60
2023/06/05 10:16:57;;;;;;;4.38;3.20;;;;;;;;;;5066878;28;20040;-60
2023/06/05 10:19:24;;;;;;;4.88;3.20;;;;;;;;;;5067041;28;20510;-61
2023/06/05 10:21:50;;;;;;;7.50;3.85;;;;;;;;;;5063092;28;20495;-60
2023/06/05 10:24:28;;;;;;;4.30;3.40;;;;;;;;;;5055683;28;20128;-61
2023/06/05 10:27:11;;;;;;;6.32;3.80;;;;;;;;;;5066233;28;20041;-60
2023/06/05 10:29:56;;;;;;;4.45;2.83;;;;;;;;;;5066476;28;20519;-60
2023/06/05 10:32:25;;;;;;;4.93;3.22;;;;;;;;;;5067244;28;20052;-60
2023/06/05 10:34:51;;;;;;;5.88;2.75;;;;;;;;;;5068173;28;20044;-60
2023/06/05 10:37:36;;;;;;;3.28;2.45;;;;;;;;;;5066821;28;20059;-60
2023/06/05 10:40:04;;;;;;;3.30;2.92;;;;;;;;;;5068272;28;20132;-61
2023/06/05 10:42:30;;;;;;;6.47;3.38;;;;;;;;;;5068457;28;20462;-60
2023/06/05 10:44:56;;;;;;;4.55;2.80;;;;;;;;;;5067257;28;20874;-61
2023/06/05 10:47:35;;;;;;;4.07;2.80;;;;;;;;;;5066879;28;20055;-60
2023/06/05 10:50:19;;;;;;;6.40;3.22;;;;;;;;;;5066682;28;20051;-60
2023/06/05 10:52:52;;;;;;;6.15;2.53;;;;;;;;;;5067725;28;20510;-60
2023/06/05 10:55:20;;;;;;;5.25;2.83;;;;;;;;;;5067771;28;20053;-60
2023/06/05 10:58:01;;;;;;;5.20;2.80;;;;;;;;;;5066802;28;20041;-60
2023/06/05 11:00:31;;;;;;;3.17;2.10;;;;;;;;;;5068036;28;20053;-60
2023/06/05 11:02:58;;;;;;;3.88;2.42;;;;;;;;;;5058203;28;20041;-60
2023/06/05 11:05:24;;;;;;;5.65;2.53;;;;;;;;;;5067929;28;20048;-60
2023/06/05 11:08:09;;;;;;;4.70;2.35;;;;;;;;;;5067705;28;20117;-61
2023/06/05 11:10:35;;;;;;;4.57;2.13;;;;;;;;;;5069660;28;20127;-61
2023/06/05 11:13:02;;;;;;;4.55;2.67;;;;;;;;;;5069686;28;20487;-60
2023/06/05 11:15:31;;;;;;;6.35;2.75;;;;;;;;;;5067798;28;20052;-60
2023/06/05 11:17:57;;;;;;;7.93;2.65;;;;;;;;;;5070043;28;20492;-61
2023/06/05 11:20:29;;;;;;;4.80;2.40;;;;;;;;;;5070871;28;20132;-60
2023/06/05 11:22:55;;;;;;;;;;;;;;;;;;5071307;28;20048;-60
2023/06/05 11:25:21;;;;;;;3.75;2.40;;;;;;;;;;5064945;28;19928;-60
2023/06/05 11:27:51;;;;;;;5.65;2.40;;;;;;;;;;5070007;28;20047;-60
2023/06/05 11:30:18;;;;;;;3.67;2.75;;;;;;;;;;5070870;28;20048;-60
2023/06/05 11:32:45;;;;;;;4.47;2.58;;;;;;;;;;5069748;28;20048;-61
2023/06/05 11:35:11;;;;;;;4.63;2.90;;;;;;;;;;5070771;28;20056;-61
2023/06/05 11:37:38;;;;;;;3.28;2.30;;;;;;;;;;5058012;28;20470;-61
2023/06/05 11:40:11;;;;;;;4.50;2.70;;;;;;;;;;5067561;28;20131;-61
2023/06/05 11:42:38;;;;;;;5.80;3.00;;;;;;;;;;5069961;28;20597;-61
2023/06/05 11:45:11;;;;;;;5.30;3.00;;;;;;;;;;5070788;28;20097;-61
2023/06/05 11:47:37;;;;;;;5.95;3.20;;;;;;;;;;5070510;28;20054;-61
2023/06/05 11:50:15;;;;;;;4.38;2.70;;;;;;;;;;5070573;28;20040;-61
2023/06/05 11:52:41;;;;;;;4.45;2.67;;;;;;;;;;5067707;28;20701;-61
2023/06/05 11:55:32;;;;;;;3.83;2.70;;;;;;;;;;5068241;28;20049;-61
2023/06/05 11:57:58;;;;;;;4.90;3.03;;;;;;;;;;5068907;28;20052;-61
2023/06/05 12:00:26;;;;;;;6.40;3.20;;;;;;;;;;5070047;28;20264;-61
2023/06/05 12:02:52;;;;;;;5.72;3.10;;;;;;;;;;5068935;28;20080;-61
2023/06/05 12:05:19;;;;;;;4.45;3.13;;;;;;;;;;5069541;28;20051;-61
2023/06/05 12:07:45;;;;;;;4.75;2.83;;;;;;;;;;5068753;28;20092;-61
2023/06/05 12:10:11;;;;;;;3.78;2.53;;;;;;;;;;5069547;28;20036;-61
2023/06/05 12:12:53;;;;;;;4.35;2.90;;;;;;;;;;5069163;28;20048;-61
2023/06/05 12:15:19;;;;;;;;;;;;;;;;;;5069757;28;20551;-61
2023/06/05 12:17:52;;;;;;;4.53;2.75;;;;;;;;;;5069369;28;20374;-61
2023/06/05 12:20:18;;;;;;;4.93;3.00;;;;;;;;;;5068961;28;20048;-61
2023/06/05 12:22:44;;;;;;;8.25;2.83;;;;;;;;;;5068915;28;20570;-61
2023/06/05 12:25:21;;;;;;;4.43;2.55;;;;;;;;;;5068660;28;20052;-60
2023/06/05 12:27:48;;;;;;;6.72;2.85;;;;;;;;;;5069007;28;20044;-61
2023/06/05 12:30:16;;;;;;;4.25;3.05;;;;;;;;;;5069264;28;20411;-61
2023/06/05 12:32:43;;;;;;;4.55;3.45;;;;;;;;;;5068833;28;20052;-61
2023/06/05 12:35:19;;;;;;;4.20;3.05;;;;;;;;;;5068921;28;20131;-61
2023/06/05 12:37:47;;;;;;;4.70;2.53;;;;;;;;;;5069101;28;20098;-61
2023/06/05 12:40:13;;;;;;;4.65;3.03;;;;;;;;;;5069090;28;20571;-61
2023/06/05 12:42:43;;;;;;;5.22;2.60;;;;;;;;;;5069081;28;20090;-61
2023/06/05 12:45:09;;;;;;;4.72;2.85;;;;;;;;;;5068512;28;20135;-61
2023/06/05 12:47:36;;;;;;;4.68;2.78;;;;;;;;;;5068857;28;20037;-61
2023/06/05 12:50:03;;;;;;;4.22;2.67;;;;;;;;;;5068221;28;20060;-61
2023/06/05 12:52:29;;;;;;;4.30;2.45;;;;;;;;;;5068699;28;20045;-61
2023/06/05 12:54:56;;;;;;;4.78;2.85;;;;;;;;;;5068503;28;20132;-61
2023/06/05 12:57:23;;;;;;;3.60;2.33;;;;;;;;;;5068546;28;20051;-61
2023/06/05 12:59:50;;;;;;;4.95;2.63;;;;;;;;;;5068620;28;20055;-61
2023/06/05 13:02:16;;;;;;;5.78;2.88;;;;;;;;;;5068306;28;20080;-61
2023/06/05 13:04:42;;;;;;;4.90;2.42;;;;;;;;;;5068761;28;20101;-61
2023/06/05 13:07:10;;;;;;;3.88;2.63;;;;;;;;;;5068340;28;20044;-61
2023/06/05 13:09:36;;;;;;;7.57;3.60;;;;;;;;;;5068155;28;20561;-61
2023/06/05 13:12:03;;;;;;;3.45;2.95;;;;;;;;;;5068371;28;20040;-61
2023/06/05 13:14:30;;;;;;;4.15;3.13;;;;;;;;;;5068088;28;20411;-61
2023/06/05 13:16:59;;;;;;;4.72;2.92;;;;;;;;;;5068329;28;20067;-61
2023/06/05 13:19:25;;;;;;;5.60;3.00;;;;;;;;;;5068375;28;20390;-61
2023/06/05 13:21:52;;;;;;;3.95;2.88;;;;;;;;;;5067603;28;20053;-61
2023/06/05 13:24:18;;;;;;;4.55;3.30;;;;;;;;;;5068247;28;20052;-61
2023/06/05 13:26:46;;;;;;;4.95;2.90;;;;;;;;;;5068183;28;20048;-61
2023/06/05 13:29:13;;;;;;;5.40;2.45;;;;;;;;;;5068104;28;20109;-61
2023/06/05 13:31:39;;;;;;;3.42;2.55;;;;;;;;;;5068166;28;20541;-61
2023/06/05 13:34:05;;;;;;;4.93;2.63;;;;;;;;;;5067204;28;20052;-61
2023/06/05 13:36:31;;;;;;;3.78;2.55;;;;;;;;;;5067474;28;20379;-61
2023/06/05 13:38:57;;;;;;;5.43;3.10;;;;;;;;;;5068169;28;20080;-61
2023/06/05 13:41:24;;;;;;;5.03;2.70;;;;;;;;;;5068011;28;20423;-61
2023/06/05 13:43:50;;;;;;;4.28;2.70;;;;;;;;;;5067405;28;20037;-61
2023/06/05 13:46:16;;;;;;;3.75;2.53;;;;;;;;;;5067948;28;20044;-61
2023/06/05 13:48:42;;;;;;;6.13;2.90;;;;;;;;;;5068199;28;20387;-61
2023/06/05 13:51:08;;;;;;;4.85;2.97;;;;;;;;;;5067454;28;20109;-61
2023/06/05 13:53:34;;;;;;;6.03;3.15;;;;;;;;;;5067407;28;20044;-61
2023/06/05 13:56:02;;;;;;;3.35;2.38;;;;;;;;;;5049896;28;20738;-61
2023/06/05 13:58:28;;;;;;;4.97;3.10;;;;;;;;;;5067799;28;20041;-61
2023/06/05 14:00:55;;;;;;;5.82;3.15;;;;;;;;;;5067438;28;20048;-61
2023/06/05 14:03:21;;;;;;;5.35;2.55;;;;;;;;;;5067744;28;20047;-61
2023/06/05 14:05:47;;;;;;;4.85;2.72;;;;;;;;;;5067813;28;20080;-61
2023/06/05 14:08:13;;;;;;;4.05;2.92;;;;;;;;;;5067918;28;20052;-61
2023/06/05 14:10:39;;;;;;;3.95;2.63;;;;;;;;;;5067102;28;20068;-61
2023/06/05 14:13:05;;;;;;;4.60;2.95;;;;;;;;;;5067971;28;20049;-61
2023/06/05 14:15:33;;;;;;;3.13;2.55;;;;;;;;;;5067374;28;20514;-61
2023/06/05 14:18:01;;;;;;;5.28;3.22;;;;;;;;;;5067328;28;20148;-61
2023/06/05 14:20:29;;;;;;;6.03;3.08;;;;;;;;;;5067848;28;20076;-61
2023/06/05 14:22:55;;;;;;;3.83;2.50;;;;;;;;;;5066995;28;20494;-61
2023/06/05 14:25:21;;;;;;;5.43;3.00;;;;;;;;;;5067453;28;20049;-62
2023/06/05 14:27:47;;;;;;;5.88;2.60;;;;;;;;;;5067497;28;20049;-61
2023/06/05 14:30:13;;;;;;;2.95;2.13;;;;;;;;;;5067655;28;20119;-61
2023/06/05 14:32:39;;;;;;;5.28;3.03;;;;;;;;;;5067099;28;20056;-61